ETD576 OEDF-OMAA
Flight info
| Callsign | ETD576 |
|---|---|
| Flight time | 1h 21m |
| Altitude | 24000 |
| Route | RYDAN DCT OEAH DCT SITER/N0449F250 DCT RIBOT DCT GOLGU DCT UKRAG DCT ELUDA/N0442F240 DCT ROVOS |
| Aircraft | A320/M-SDE3FGHIRWY/LB1 |
Departure
| Time | 2026-04-25 04:16 |
|---|---|
| Airport | King Fahd International Airport (OEDF) |
Arrival
| Time | 2026-04-25 05:37 |
|---|---|
| Airport | Zayed International Airport (OMAA) |
| Time | Latitude | Longitude | Altitude | Speed | Heading |
|---|---|---|---|---|---|
| 2026-04-25 03:58 | 26.47024 | 49.79416 | 85 ft | 0 kts | 62° |
| 2026-04-25 04:06 | 26.47023 | 49.79415 | 58 ft | 3 kts | 62° |
| 2026-04-25 04:06 | 26.47016 | 49.79399 | 90 ft | 2 kts | 65° |
| 2026-04-25 04:06 | 26.47010 | 49.79383 | 90 ft | 2 kts | 66° |
| 2026-04-25 04:07 | 26.47005 | 49.79372 | 89 ft | 2 kts | 64° |
| 2026-04-25 04:07 | 26.47006 | 49.79350 | 88 ft | 2 kts | 133° |
| 2026-04-25 04:07 | 26.47016 | 49.79335 | 90 ft | 2 kts | 131° |
| 2026-04-25 04:07 | 26.47029 | 49.79324 | 85 ft | 2 kts | 155° |
| 2026-04-25 04:08 | 26.47041 | 49.79318 | 85 ft | 1 kts | 152° |
| 2026-04-25 04:08 | 26.47042 | 49.79318 | 85 ft | 0 kts | 151° |
| 2026-04-25 04:09 | 26.47039 | 49.79319 | 89 ft | 2 kts | 151° |
| 2026-04-25 04:10 | 26.47022 | 49.79330 | 86 ft | 4 kts | 151° |
| 2026-04-25 04:10 | 26.46989 | 49.79349 | 85 ft | 7 kts | 154° |
| 2026-04-25 04:10 | 26.46940 | 49.79375 | 88 ft | 9 kts | 154° |
| 2026-04-25 04:10 | 26.46894 | 49.79400 | 85 ft | 11 kts | 154° |
| 2026-04-25 04:11 | 26.46730 | 49.79455 | 88 ft | 16 kts | 166° |
| 2026-04-25 04:11 | 26.46616 | 49.79484 | 88 ft | 18 kts | 178° |
| 2026-04-25 04:11 | 26.46489 | 49.79486 | 85 ft | 18 kts | 212° |
| 2026-04-25 04:12 | 26.46444 | 49.79366 | 87 ft | 18 kts | 255° |
| 2026-04-25 04:12 | 26.46400 | 49.79231 | 85 ft | 13 kts | 216° |
| 2026-04-25 04:12 | 26.46313 | 49.79248 | 85 ft | 14 kts | 164° |
| 2026-04-25 04:12 | 26.46211 | 49.79280 | 87 ft | 17 kts | 164° |
| 2026-04-25 04:13 | 26.46091 | 49.79318 | 86 ft | 19 kts | 165° |
| 2026-04-25 04:13 | 26.45955 | 49.79361 | 88 ft | 22 kts | 164° |
| 2026-04-25 04:13 | 26.45799 | 49.79407 | 85 ft | 24 kts | 164° |
| 2026-04-25 04:13 | 26.45645 | 49.79457 | 89 ft | 21 kts | 163° |
| 2026-04-25 04:14 | 26.45494 | 49.79496 | 87 ft | 21 kts | 186° |
| 2026-04-25 04:14 | 26.45443 | 49.79393 | 89 ft | 16 kts | 254° |
| 2026-04-25 04:14 | 26.45427 | 49.79264 | 86 ft | 17 kts | 288° |
| 2026-04-25 04:14 | 26.45504 | 49.79174 | 86 ft | 17 kts | 343° |
| 2026-04-25 04:15 | 26.45754 | 49.79097 | 88 ft | 70 kts | 344° |
| 2026-04-25 04:15 | 26.46422 | 49.78892 | 88 ft | 128 kts | 344° |
| 2026-04-25 04:15 | 26.47446 | 49.78569 | 157 ft | 166 kts | 345° |
| 2026-04-25 04:15 | 26.48632 | 49.78177 | 448 ft | 187 kts | 348° |
| 2026-04-25 04:16 | 26.49925 | 49.77802 | 887 ft | 199 kts | 346° |
| 2026-04-25 04:16 | 26.51304 | 49.77351 | 1384 ft | 217 kts | 344° |
| 2026-04-25 04:16 | 26.52805 | 49.76810 | 1970 ft | 234 kts | 343° |
| 2026-04-25 04:16 | 26.54430 | 49.76223 | 2601 ft | 249 kts | 343° |
| 2026-04-25 04:17 | 26.56113 | 49.75633 | 3371 ft | 257 kts | 339° |
| 2026-04-25 04:17 | 26.57616 | 49.74566 | 4155 ft | 259 kts | 310° |
| 2026-04-25 04:17 | 26.58483 | 49.72809 | 4936 ft | 261 kts | 281° |
| 2026-04-25 04:17 | 26.58492 | 49.70808 | 5784 ft | 260 kts | 257° |
| 2026-04-25 04:18 | 26.58063 | 49.68848 | 6649 ft | 261 kts | 253° |
| 2026-04-25 04:18 | 26.57323 | 49.67045 | 7456 ft | 260 kts | 231° |
| 2026-04-25 04:18 | 26.55893 | 49.65808 | 8275 ft | 264 kts | 204° |
| 2026-04-25 04:18 | 26.54076 | 49.65467 | 9068 ft | 273 kts | 179° |
| 2026-04-25 04:19 | 26.52145 | 49.65766 | 9848 ft | 278 kts | 176° |
| 2026-04-25 04:19 | 26.50213 | 49.65980 | 10559 ft | 279 kts | 180° |
| 2026-04-25 04:19 | 26.48294 | 49.66105 | 11265 ft | 281 kts | 181° |
| 2026-04-25 04:19 | 26.46293 | 49.66200 | 12023 ft | 284 kts | 182° |
| 2026-04-25 04:20 | 26.44295 | 49.66288 | 12452 ft | 299 kts | 181° |
| 2026-04-25 04:20 | 26.42136 | 49.66385 | 12781 ft | 316 kts | 181° |
| 2026-04-25 04:20 | 26.39880 | 49.66495 | 13071 ft | 332 kts | 181° |
| 2026-04-25 04:20 | 26.37517 | 49.66619 | 13319 ft | 349 kts | 181° |
| 2026-04-25 04:21 | 26.34979 | 49.66760 | 13551 ft | 365 kts | 180° |
| 2026-04-25 04:21 | 26.32365 | 49.66911 | 13743 ft | 381 kts | 180° |
| 2026-04-25 04:21 | 26.29680 | 49.67069 | 14118 ft | 389 kts | 180° |
| 2026-04-25 04:21 | 26.26954 | 49.67231 | 14637 ft | 394 kts | 180° |
| 2026-04-25 04:22 | 26.24276 | 49.67394 | 15160 ft | 397 kts | 180° |
| 2026-04-25 04:22 | 26.21511 | 49.67374 | 15679 ft | 397 kts | 191° |
| 2026-04-25 04:22 | 26.18889 | 49.66600 | 16198 ft | 396 kts | 201° |
| 2026-04-25 04:22 | 26.16265 | 49.65601 | 16684 ft | 400 kts | 201° |
| 2026-04-25 04:23 | 26.13614 | 49.64582 | 17184 ft | 404 kts | 202° |
| 2026-04-25 04:23 | 26.10949 | 49.63554 | 17667 ft | 407 kts | 202° |
| 2026-04-25 04:23 | 26.08260 | 49.62518 | 18147 ft | 411 kts | 202° |
| 2026-04-25 04:23 | 26.05546 | 49.61474 | 18553 ft | 414 kts | 202° |
| 2026-04-25 04:24 | 26.02813 | 49.60428 | 18968 ft | 417 kts | 202° |
| 2026-04-25 04:24 | 26.00057 | 49.59379 | 19362 ft | 420 kts | 202° |
| 2026-04-25 04:24 | 25.97279 | 49.58322 | 19762 ft | 423 kts | 202° |
| 2026-04-25 04:24 | 25.94489 | 49.57260 | 20150 ft | 425 kts | 202° |
| 2026-04-25 04:25 | 25.91683 | 49.56192 | 20533 ft | 428 kts | 202° |
| 2026-04-25 04:25 | 25.88846 | 49.55111 | 20887 ft | 431 kts | 202° |
| 2026-04-25 04:25 | 25.85999 | 49.54029 | 21237 ft | 433 kts | 202° |
| 2026-04-25 04:25 | 25.83137 | 49.52941 | 21568 ft | 436 kts | 202° |
| 2026-04-25 04:26 | 25.80256 | 49.51843 | 21883 ft | 438 kts | 202° |
| 2026-04-25 04:26 | 25.77357 | 49.50739 | 22185 ft | 441 kts | 202° |
| 2026-04-25 04:26 | 25.74454 | 49.49634 | 22486 ft | 443 kts | 202° |
| 2026-04-25 04:26 | 25.71541 | 49.48529 | 22766 ft | 445 kts | 202° |
| 2026-04-25 04:27 | 25.68601 | 49.47412 | 23058 ft | 447 kts | 201° |
| 2026-04-25 04:27 | 25.65653 | 49.46291 | 23340 ft | 449 kts | 202° |
| 2026-04-25 04:27 | 25.62682 | 49.45163 | 23587 ft | 452 kts | 202° |
| 2026-04-25 04:27 | 25.59702 | 49.44031 | 23818 ft | 454 kts | 202° |
| 2026-04-25 04:28 | 25.56722 | 49.42902 | 24050 ft | 455 kts | 201° |
| 2026-04-25 04:28 | 25.53698 | 49.41761 | 24297 ft | 456 kts | 201° |
| 2026-04-25 04:28 | 25.50652 | 49.40611 | 24534 ft | 458 kts | 202° |
| 2026-04-25 04:28 | 25.47666 | 49.39482 | 24766 ft | 459 kts | 202° |
| 2026-04-25 04:29 | 25.44605 | 49.38324 | 24989 ft | 460 kts | 202° |
| 2026-04-25 04:29 | 25.41589 | 49.37185 | 25198 ft | 462 kts | 202° |
| 2026-04-25 04:29 | 25.38542 | 49.36037 | 25401 ft | 463 kts | 202° |
| 2026-04-25 04:29 | 25.35494 | 49.34888 | 25594 ft | 464 kts | 202° |
| 2026-04-25 04:30 | 25.32430 | 49.33734 | 25778 ft | 465 kts | 202° |
| 2026-04-25 04:30 | 25.29369 | 49.32582 | 25948 ft | 466 kts | 202° |
| 2026-04-25 04:30 | 25.26294 | 49.31422 | 26117 ft | 467 kts | 202° |
| 2026-04-25 04:30 | 25.23212 | 49.30259 | 26275 ft | 468 kts | 202° |
| 2026-04-25 04:31 | 25.20132 | 49.29097 | 26412 ft | 469 kts | 202° |
| 2026-04-25 04:31 | 25.17050 | 49.27938 | 26539 ft | 469 kts | 202° |
| 2026-04-25 04:31 | 25.13946 | 49.26771 | 26665 ft | 470 kts | 202° |
| 2026-04-25 04:31 | 25.10852 | 49.25610 | 26786 ft | 470 kts | 202° |
| 2026-04-25 04:32 | 25.07748 | 49.24445 | 26910 ft | 471 kts | 202° |
| 2026-04-25 04:32 | 25.04649 | 49.23283 | 27029 ft | 471 kts | 202° |
| 2026-04-25 04:32 | 25.02557 | 49.22498 | 27222 ft | 468 kts | 202° |
| 2026-04-25 04:32 | 24.99484 | 49.21347 | 27587 ft | 464 kts | 202° |
| 2026-04-25 04:33 | 24.96422 | 49.20203 | 27818 ft | 464 kts | 202° |
| 2026-04-25 04:33 | 24.93360 | 49.19057 | 27990 ft | 465 kts | 202° |
| 2026-04-25 04:33 | 24.90341 | 49.17926 | 28140 ft | 466 kts | 202° |
| 2026-04-25 04:33 | 24.87226 | 49.16760 | 28281 ft | 467 kts | 202° |
| 2026-04-25 04:34 | 24.84154 | 49.15610 | 28415 ft | 467 kts | 202° |
| 2026-04-25 04:34 | 24.81080 | 49.14458 | 28776 ft | 463 kts | 202° |
| 2026-04-25 04:34 | 24.78036 | 49.13321 | 29174 ft | 459 kts | 202° |
| 2026-04-25 04:34 | 24.75059 | 49.12208 | 29515 ft | 457 kts | 203° |
| 2026-04-25 04:35 | 24.72002 | 49.11066 | 29826 ft | 456 kts | 203° |
| 2026-04-25 04:35 | 24.69043 | 49.09962 | 30116 ft | 456 kts | 203° |
| 2026-04-25 04:35 | 24.66004 | 49.08828 | 30382 ft | 455 kts | 203° |
| 2026-04-25 04:35 | 24.63037 | 49.07721 | 30644 ft | 454 kts | 203° |
| 2026-04-25 04:36 | 24.60057 | 49.06610 | 30898 ft | 454 kts | 203° |
| 2026-04-25 04:36 | 24.54031 | 49.04364 | 31017 ft | 460 kts | 203° |
| 2026-04-25 04:37 | 24.47982 | 49.02121 | 31014 ft | 453 kts | 202° |
| 2026-04-25 04:37 | 24.42003 | 48.99906 | 31014 ft | 453 kts | 203° |
| 2026-04-25 04:38 | 24.36025 | 48.97683 | 31019 ft | 453 kts | 203° |
| 2026-04-25 04:38 | 24.30048 | 48.95462 | 31017 ft | 454 kts | 202° |
| 2026-04-25 04:39 | 24.23859 | 48.94036 | 31018 ft | 467 kts | 179° |
| 2026-04-25 04:39 | 24.20681 | 48.94908 | 30995 ft | 481 kts | 160° |
| 2026-04-25 04:39 | 24.17867 | 48.96956 | 30983 ft | 495 kts | 140° |
| 2026-04-25 04:39 | 24.15763 | 48.99975 | 30984 ft | 506 kts | 120° |
| 2026-04-25 04:40 | 24.14356 | 49.03527 | 30979 ft | 511 kts | 112° |
| 2026-04-25 04:40 | 24.12420 | 49.11087 | 30999 ft | 514 kts | 105° |
| 2026-04-25 04:41 | 24.10747 | 49.18693 | 31017 ft | 513 kts | 107° |
| 2026-04-25 04:41 | 24.08734 | 49.26175 | 31010 ft | 511 kts | 110° |
| 2026-04-25 04:42 | 24.06501 | 49.33562 | 31010 ft | 511 kts | 111° |
| 2026-04-25 04:42 | 24.04284 | 49.40963 | 31013 ft | 512 kts | 110° |
| 2026-04-25 04:43 | 24.02145 | 49.48404 | 31018 ft | 512 kts | 110° |
| 2026-04-25 04:43 | 24.00027 | 49.55837 | 31018 ft | 513 kts | 110° |
| 2026-04-25 04:44 | 23.97879 | 49.63283 | 31027 ft | 512 kts | 110° |
| 2026-04-25 04:44 | 23.95724 | 49.70688 | 31028 ft | 511 kts | 110° |
| 2026-04-25 04:45 | 23.93560 | 49.78091 | 31022 ft | 511 kts | 110° |
| 2026-04-25 04:45 | 23.91398 | 49.85506 | 31025 ft | 511 kts | 110° |
| 2026-04-25 04:46 | 23.89240 | 49.92908 | 31029 ft | 510 kts | 110° |
| 2026-04-25 04:46 | 23.87083 | 50.00298 | 31023 ft | 510 kts | 110° |
| 2026-04-25 04:47 | 23.84935 | 50.07640 | 31018 ft | 510 kts | 110° |
| 2026-04-25 04:47 | 23.82797 | 50.15010 | 31017 ft | 510 kts | 110° |
| 2026-04-25 04:48 | 23.80646 | 50.22374 | 31013 ft | 510 kts | 110° |
| 2026-04-25 04:48 | 23.78468 | 50.29756 | 31013 ft | 510 kts | 110° |
| 2026-04-25 04:49 | 23.76290 | 50.37121 | 31010 ft | 510 kts | 110° |
| 2026-04-25 04:49 | 23.74113 | 50.44496 | 31012 ft | 510 kts | 110° |
| 2026-04-25 04:50 | 23.71940 | 50.51869 | 31008 ft | 510 kts | 110° |
| 2026-04-25 04:50 | 23.69752 | 50.59235 | 31009 ft | 510 kts | 110° |
| 2026-04-25 04:51 | 23.67555 | 50.66616 | 31010 ft | 510 kts | 110° |
| 2026-04-25 04:51 | 23.65362 | 50.73972 | 31009 ft | 510 kts | 110° |
| 2026-04-25 04:52 | 23.63169 | 50.81337 | 31009 ft | 510 kts | 110° |
| 2026-04-25 04:52 | 23.60968 | 50.88698 | 31011 ft | 510 kts | 110° |
| 2026-04-25 04:53 | 23.58759 | 50.96056 | 31009 ft | 511 kts | 110° |
| 2026-04-25 04:53 | 23.56553 | 51.03411 | 31014 ft | 510 kts | 109° |
| 2026-04-25 04:54 | 23.54350 | 51.10762 | 31008 ft | 510 kts | 109° |
| 2026-04-25 04:54 | 23.52137 | 51.18117 | 31008 ft | 510 kts | 109° |
| 2026-04-25 04:55 | 23.49916 | 51.25464 | 31006 ft | 510 kts | 109° |
| 2026-04-25 04:55 | 23.47694 | 51.32810 | 31010 ft | 510 kts | 109° |
| 2026-04-25 04:56 | 23.45455 | 51.40193 | 31005 ft | 510 kts | 109° |
| 2026-04-25 04:56 | 23.43230 | 51.47524 | 31007 ft | 510 kts | 109° |
| 2026-04-25 04:57 | 23.40993 | 51.54865 | 31004 ft | 510 kts | 109° |
| 2026-04-25 04:57 | 23.38761 | 51.62201 | 31005 ft | 510 kts | 109° |
| 2026-04-25 04:58 | 23.36545 | 51.69481 | 31005 ft | 510 kts | 109° |
| 2026-04-25 04:58 | 23.34291 | 51.76853 | 31002 ft | 510 kts | 109° |
| 2026-04-25 04:59 | 23.32044 | 51.84184 | 31001 ft | 511 kts | 109° |
| 2026-04-25 04:59 | 23.29801 | 51.91479 | 31001 ft | 511 kts | 109° |
| 2026-04-25 05:00 | 23.27551 | 51.98801 | 31001 ft | 511 kts | 109° |
| 2026-04-25 05:00 | 23.25299 | 52.06133 | 31007 ft | 511 kts | 109° |
| 2026-04-25 05:01 | 23.23037 | 52.13454 | 31010 ft | 511 kts | 109° |
| 2026-04-25 05:01 | 23.20754 | 52.20784 | 31007 ft | 511 kts | 109° |
| 2026-04-25 05:02 | 23.18476 | 52.28105 | 31004 ft | 511 kts | 109° |
| 2026-04-25 05:02 | 23.16292 | 52.35450 | 31002 ft | 511 kts | 103° |
| 2026-04-25 05:03 | 23.15838 | 52.43122 | 30992 ft | 510 kts | 82° |
| 2026-04-25 05:03 | 23.17621 | 52.50534 | 30862 ft | 508 kts | 72° |
| 2026-04-25 05:03 | 23.18396 | 52.54281 | 30985 ft | 510 kts | 81° |
| 2026-04-25 05:04 | 23.18716 | 52.56874 | 30987 ft | 511 kts | 81° |
| 2026-04-25 05:04 | 23.19653 | 52.64529 | 30992 ft | 511 kts | 81° |
| 2026-04-25 05:05 | 23.20609 | 52.72176 | 31000 ft | 510 kts | 81° |
| 2026-04-25 05:05 | 23.21566 | 52.79825 | 31003 ft | 510 kts | 81° |
| 2026-04-25 05:06 | 23.22521 | 52.87463 | 30997 ft | 510 kts | 81° |
| 2026-04-25 05:06 | 23.23483 | 52.95107 | 30998 ft | 510 kts | 81° |
| 2026-04-25 05:07 | 23.24429 | 53.02757 | 30997 ft | 510 kts | 81° |
| 2026-04-25 05:07 | 23.25367 | 53.10400 | 30998 ft | 509 kts | 81° |
| 2026-04-25 05:08 | 23.26299 | 53.18047 | 30993 ft | 509 kts | 81° |
| 2026-04-25 05:08 | 23.27227 | 53.25679 | 30995 ft | 509 kts | 81° |
| 2026-04-25 05:09 | 23.28152 | 53.33314 | 30992 ft | 509 kts | 81° |
| 2026-04-25 05:09 | 23.29072 | 53.40931 | 30990 ft | 508 kts | 81° |
| 2026-04-25 05:10 | 23.29978 | 53.48516 | 30989 ft | 508 kts | 81° |
| 2026-04-25 05:10 | 23.30887 | 53.56150 | 30990 ft | 508 kts | 81° |
| 2026-04-25 05:11 | 23.31801 | 53.63780 | 30982 ft | 508 kts | 81° |
| 2026-04-25 05:11 | 23.32710 | 53.71395 | 30987 ft | 507 kts | 81° |
| 2026-04-25 05:12 | 23.34062 | 53.82809 | 30985 ft | 507 kts | 81° |
| 2026-04-25 05:12 | 23.34953 | 53.90435 | 30978 ft | 507 kts | 82° |
| 2026-04-25 05:13 | 23.35835 | 53.98047 | 30981 ft | 507 kts | 82° |
| 2026-04-25 05:13 | 23.36718 | 54.05645 | 30979 ft | 507 kts | 82° |
| 2026-04-25 05:14 | 23.37605 | 54.13251 | 30974 ft | 506 kts | 81° |
| 2026-04-25 05:15 | 23.38927 | 54.24649 | 30962 ft | 506 kts | 82° |
| 2026-04-25 05:15 | 23.39361 | 54.28430 | 30582 ft | 500 kts | 82° |
| 2026-04-25 05:15 | 23.39789 | 54.32178 | 30344 ft | 499 kts | 82° |
| 2026-04-25 05:15 | 23.40214 | 54.35919 | 30110 ft | 497 kts | 82° |
| 2026-04-25 05:16 | 23.40636 | 54.39640 | 29847 ft | 494 kts | 82° |
| 2026-04-25 05:16 | 23.41059 | 54.43355 | 29584 ft | 492 kts | 82° |
| 2026-04-25 05:16 | 23.41479 | 54.47041 | 29309 ft | 490 kts | 82° |
| 2026-04-25 05:16 | 23.41895 | 54.50717 | 29043 ft | 488 kts | 82° |
| 2026-04-25 05:17 | 23.42305 | 54.54376 | 28778 ft | 485 kts | 82° |
| 2026-04-25 05:17 | 23.42712 | 54.58010 | 28523 ft | 483 kts | 82° |
| 2026-04-25 05:17 | 23.43119 | 54.61646 | 28256 ft | 481 kts | 82° |
| 2026-04-25 05:17 | 23.43522 | 54.65248 | 27998 ft | 479 kts | 82° |
| 2026-04-25 05:18 | 23.43928 | 54.68849 | 27747 ft | 477 kts | 82° |
| 2026-04-25 05:18 | 23.44333 | 54.72431 | 27494 ft | 475 kts | 82° |
| 2026-04-25 05:18 | 23.44732 | 54.75991 | 27246 ft | 473 kts | 82° |
| 2026-04-25 05:18 | 23.45127 | 54.79549 | 26996 ft | 471 kts | 82° |
| 2026-04-25 05:19 | 23.45516 | 54.83074 | 26758 ft | 470 kts | 82° |
| 2026-04-25 05:19 | 23.46104 | 54.86572 | 26420 ft | 465 kts | 71° |
| 2026-04-25 05:19 | 23.47419 | 54.89776 | 26301 ft | 462 kts | 56° |
| 2026-04-25 05:19 | 23.49210 | 54.92667 | 25983 ft | 458 kts | 53° |
| 2026-04-25 05:20 | 23.51024 | 54.95493 | 25385 ft | 453 kts | 53° |
| 2026-04-25 05:20 | 23.52835 | 54.98280 | 24776 ft | 449 kts | 53° |
| 2026-04-25 05:20 | 23.54636 | 55.01037 | 24182 ft | 446 kts | 53° |
| 2026-04-25 05:20 | 23.56443 | 55.03804 | 23597 ft | 443 kts | 53° |
| 2026-04-25 05:21 | 23.58218 | 55.06535 | 23037 ft | 440 kts | 53° |
| 2026-04-25 05:21 | 23.59978 | 55.09256 | 22527 ft | 436 kts | 53° |
| 2026-04-25 05:21 | 23.61712 | 55.11947 | 22022 ft | 433 kts | 54° |
| 2026-04-25 05:21 | 23.63436 | 55.14624 | 21521 ft | 429 kts | 54° |
| 2026-04-25 05:22 | 23.65144 | 55.17273 | 21032 ft | 425 kts | 54° |
| 2026-04-25 05:22 | 23.66838 | 55.19901 | 20553 ft | 421 kts | 54° |
| 2026-04-25 05:22 | 23.68515 | 55.22503 | 20084 ft | 417 kts | 54° |
| 2026-04-25 05:22 | 23.70173 | 55.25077 | 19726 ft | 415 kts | 54° |
| 2026-04-25 05:23 | 23.71832 | 55.27652 | 19381 ft | 412 kts | 54° |
| 2026-04-25 05:23 | 23.73476 | 55.30203 | 19041 ft | 410 kts | 54° |
| 2026-04-25 05:23 | 23.75107 | 55.32738 | 18698 ft | 407 kts | 54° |
| 2026-04-25 05:23 | 23.76728 | 55.35262 | 18352 ft | 405 kts | 54° |
| 2026-04-25 05:24 | 23.78342 | 55.37774 | 17998 ft | 402 kts | 54° |
| 2026-04-25 05:24 | 23.79944 | 55.40267 | 17608 ft | 400 kts | 54° |
| 2026-04-25 05:24 | 23.81615 | 55.42666 | 17236 ft | 396 kts | 46° |
| 2026-04-25 05:24 | 23.83706 | 55.44617 | 16861 ft | 393 kts | 32° |
| 2026-04-25 05:25 | 23.86124 | 55.45963 | 16488 ft | 389 kts | 19° |
| 2026-04-25 05:25 | 23.88731 | 55.46660 | 16122 ft | 385 kts | 6° |
| 2026-04-25 05:25 | 23.91389 | 55.46689 | 15757 ft | 382 kts | 352° |
| 2026-04-25 05:25 | 23.93980 | 55.46117 | 15402 ft | 379 kts | 345° |
| 2026-04-25 05:26 | 23.96529 | 55.45425 | 15054 ft | 376 kts | 345° |
| 2026-04-25 05:26 | 23.99043 | 55.44652 | 14707 ft | 373 kts | 337° |
| 2026-04-25 05:26 | 24.01257 | 55.43231 | 14359 ft | 369 kts | 319° |
| 2026-04-25 05:26 | 24.02945 | 55.41151 | 14019 ft | 366 kts | 301° |
| 2026-04-25 05:27 | 24.04134 | 55.38716 | 13666 ft | 364 kts | 297° |
| 2026-04-25 05:27 | 24.05288 | 55.36238 | 13271 ft | 362 kts | 296° |
| 2026-04-25 05:27 | 24.06423 | 55.33792 | 12897 ft | 360 kts | 296° |
| 2026-04-25 05:27 | 24.07556 | 55.31352 | 12479 ft | 358 kts | 296° |
| 2026-04-25 05:28 | 24.08527 | 55.29262 | 12063 ft | 356 kts | 296° |
| 2026-04-25 05:28 | 24.09629 | 55.26891 | 11583 ft | 354 kts | 296° |
| 2026-04-25 05:28 | 24.10741 | 55.24501 | 11102 ft | 352 kts | 296° |
| 2026-04-25 05:28 | 24.11852 | 55.22113 | 10645 ft | 350 kts | 296° |
| 2026-04-25 05:29 | 24.12949 | 55.19752 | 10170 ft | 347 kts | 296° |
| 2026-04-25 05:29 | 24.14035 | 55.17414 | 9745 ft | 341 kts | 295° |
| 2026-04-25 05:29 | 24.15097 | 55.15130 | 9371 ft | 334 kts | 295° |
| 2026-04-25 05:29 | 24.16144 | 55.12876 | 8997 ft | 328 kts | 295° |
| 2026-04-25 05:30 | 24.17169 | 55.10673 | 8631 ft | 322 kts | 296° |
| 2026-04-25 05:30 | 24.18183 | 55.08494 | 8262 ft | 318 kts | 296° |
| 2026-04-25 05:30 | 24.19080 | 55.06552 | 7932 ft | 314 kts | 296° |
| 2026-04-25 05:30 | 24.20060 | 55.04432 | 7577 ft | 311 kts | 295° |
| 2026-04-25 05:31 | 24.21035 | 55.02325 | 7226 ft | 308 kts | 295° |
| 2026-04-25 05:31 | 24.21996 | 55.00247 | 6872 ft | 305 kts | 296° |
| 2026-04-25 05:31 | 24.22944 | 54.98203 | 6532 ft | 302 kts | 296° |
| 2026-04-25 05:31 | 24.23889 | 54.96164 | 6171 ft | 298 kts | 296° |
| 2026-04-25 05:32 | 24.24825 | 54.94147 | 5811 ft | 296 kts | 296° |
| 2026-04-25 05:32 | 24.25753 | 54.92143 | 5442 ft | 294 kts | 296° |
| 2026-04-25 05:32 | 24.26685 | 54.90126 | 5085 ft | 292 kts | 296° |
| 2026-04-25 05:32 | 24.27585 | 54.88173 | 4735 ft | 290 kts | 297° |
| 2026-04-25 05:33 | 24.28498 | 54.86200 | 4288 ft | 291 kts | 299° |
| 2026-04-25 05:33 | 24.29590 | 54.84332 | 3887 ft | 290 kts | 308° |
| 2026-04-25 05:33 | 24.30840 | 54.82604 | 3518 ft | 288 kts | 310° |
| 2026-04-25 05:33 | 24.32095 | 54.80884 | 3155 ft | 279 kts | 310° |
| 2026-04-25 05:34 | 24.33252 | 54.79260 | 2810 ft | 258 kts | 309° |
| 2026-04-25 05:34 | 24.34284 | 54.77805 | 2504 ft | 234 kts | 310° |
| 2026-04-25 05:34 | 24.35255 | 54.76441 | 2217 ft | 216 kts | 310° |
| 2026-04-25 05:34 | 24.36149 | 54.75186 | 1959 ft | 203 kts | 310° |
| 2026-04-25 05:35 | 24.36722 | 54.74381 | 1794 ft | 192 kts | 310° |
| 2026-04-25 05:35 | 24.37521 | 54.73256 | 1545 ft | 177 kts | 311° |
| 2026-04-25 05:35 | 24.38255 | 54.72225 | 1324 ft | 163 kts | 311° |
| 2026-04-25 05:35 | 24.38920 | 54.71290 | 1128 ft | 149 kts | 310° |
| 2026-04-25 05:36 | 24.39534 | 54.70424 | 963 ft | 143 kts | 309° |
| 2026-04-25 05:36 | 24.40138 | 54.69545 | 812 ft | 144 kts | 308° |
| 2026-04-25 05:36 | 24.40746 | 54.68665 | 642 ft | 144 kts | 311° |
| 2026-04-25 05:36 | 24.41372 | 54.67810 | 411 ft | 144 kts | 310° |
| 2026-04-25 05:37 | 24.41992 | 54.66943 | 188 ft | 142 kts | 311° |
| 2026-04-25 05:37 | 24.42573 | 54.66126 | 91 ft | 129 kts | 308° |
| 2026-04-25 05:37 | 24.43070 | 54.65455 | 74 ft | 89 kts | 308° |
| 2026-04-25 05:37 | 24.43342 | 54.65065 | 78 ft | 39 kts | 309° |
| 2026-04-25 05:38 | 24.43484 | 54.64929 | 71 ft | 26 kts | 329° |
| 2026-04-25 05:38 | 24.43657 | 54.64845 | 76 ft | 28 kts | 332° |
| 2026-04-25 05:38 | 24.43805 | 54.64720 | 76 ft | 26 kts | 306° |
| 2026-04-25 05:38 | 24.43909 | 54.64707 | 76 ft | 18 kts | 39° |
| 2026-04-25 05:39 | 24.44017 | 54.64793 | 73 ft | 20 kts | 39° |
| 2026-04-25 05:39 | 24.44139 | 54.64897 | 76 ft | 23 kts | 37° |
| 2026-04-25 05:39 | 24.44274 | 54.65011 | 73 ft | 26 kts | 40° |
| 2026-04-25 05:39 | 24.44411 | 54.65088 | 76 ft | 19 kts | 323° |
| 2026-04-25 05:40 | 24.44497 | 54.64976 | 75 ft | 20 kts | 310° |
| 2026-04-25 05:40 | 24.44587 | 54.64847 | 74 ft | 22 kts | 307° |
| 2026-04-25 05:40 | 24.44584 | 54.64734 | 76 ft | 14 kts | 271° |
| 2026-04-25 05:40 | 24.44635 | 54.64650 | 74 ft | 12 kts | 309° |
| 2026-04-25 05:41 | 24.44640 | 54.64604 | 71 ft | 6 kts | 229° |
| 2026-04-25 05:41 | 24.44613 | 54.64566 | 72 ft | 7 kts | 231° |
| 2026-04-25 05:41 | 24.44594 | 54.64541 | 76 ft | 2 kts | 232° |
| 2026-04-25 05:41 | 24.44594 | 54.64540 | 76 ft | 0 kts | 232° |